sensor_id;sensor_type;location;lat;lon;timestamp;temperature;humidity
2851;DHT22;1433;49.976;8.342;2023-02-18T00:00:23;12.60;99.90
2851;DHT22;1433;49.976;8.342;2023-02-18T00:02:49;12.60;99.90
2851;DHT22;1433;49.976;8.342;2023-02-18T00:05:16;12.60;99.90
2851;DHT22;1433;49.976;8.342;2023-02-18T00:07:43;12.40;99.90
2851;DHT22;1433;49.976;8.342;2023-02-18T00:10:14;12.30;99.90
2851;DHT22;1433;49.976;8.342;2023-02-18T00:12:41;12.20;99.90
2851;DHT22;1433;49.976;8.342;2023-02-18T00:15:08;12.30;99.90
2851;DHT22;1433;49.976;8.342;2023-02-18T00:17:34;12.30;99.90
2851;DHT22;1433;49.976;8.342;2023-02-18T00:20:07;12.30;99.90
2851;DHT22;1433;49.976;8.342;2023-02-18T00:22:35;12.30;99.90
2851;DHT22;1433;49.976;8.342;2023-02-18T00:25:01;12.30;99.90
2851;DHT22;1433;49.976;8.342;2023-02-18T00:27:28;12.40;99.90
2851;DHT22;1433;49.976;8.342;2023-02-18T00:29:54;12.40;99.90
2851;DHT22;1433;49.976;8.342;2023-02-18T00:32:20;12.40;99.90
2851;DHT22;1433;49.976;8.342;2023-02-18T00:34:46;12.40;99.90
2851;DHT22;1433;49.976;8.342;2023-02-18T00:37:13;12.40;99.90
2851;DHT22;1433;49.976;8.342;2023-02-18T00:39:39;12.50;99.90
2851;DHT22;1433;49.976;8.342;2023-02-18T00:42:06;12.50;99.90
2851;DHT22;1433;49.976;8.342;2023-02-18T00:44:32;12.50;99.90
2851;DHT22;1433;49.976;8.342;2023-02-18T00:46:58;12.50;99.90
2851;DHT22;1433;49.976;8.342;2023-02-18T00:49:25;12.60;99.90
2851;DHT22;1433;49.976;8.342;2023-02-18T00:51:51;12.50;99.90
2851;DHT22;1433;49.976;8.342;2023-02-18T00:54:17;12.60;99.90
2851;DHT22;1433;49.976;8.342;2023-02-18T00:56:44;12.50;99.90
2851;DHT22;1433;49.976;8.342;2023-02-18T00:59:10;12.60;99.90
2851;DHT22;1433;49.976;8.342;2023-02-18T01:01:36;12.60;99.90
2851;DHT22;1433;49.976;8.342;2023-02-18T01:04:03;12.60;99.90
2851;DHT22;1433;49.976;8.342;2023-02-18T01:06:30;12.60;99.90
2851;DHT22;1433;49.976;8.342;2023-02-18T01:08:57;12.60;99.90
2851;DHT22;1433;49.976;8.342;2023-02-18T01:11:23;12.60;99.90
2851;DHT22;1433;49.976;8.342;2023-02-18T01:13:50;12.50;99.90
2851;DHT22;1433;49.976;8.342;2023-02-18T01:16:16;12.60;99.90
2851;DHT22;1433;49.976;8.342;2023-02-18T01:18:43;12.60;99.90
2851;DHT22;1433;49.976;8.342;2023-02-18T01:21:10;12.50;99.90
2851;DHT22;1433;49.976;8.342;2023-02-18T01:23:38;12.50;99.90
2851;DHT22;1433;49.976;8.342;2023-02-18T01:26:07;12.50;99.90
2851;DHT22;1433;49.976;8.342;2023-02-18T01:28:36;12.50;99.90
2851;DHT22;1433;49.976;8.342;2023-02-18T01:31:07;12.50;99.90
2851;DHT22;1433;49.976;8.342;2023-02-18T01:33:37;12.40;99.90
2851;DHT22;1433;49.976;8.342;2023-02-18T01:36:04;12.40;99.90
2851;DHT22;1433;49.976;8.342;2023-02-18T01:38:32;12.30;99.90
2851;DHT22;1433;49.976;8.342;2023-02-18T01:40:58;12.30;99.90
2851;DHT22;1433;49.976;8.342;2023-02-18T01:43:24;12.30;99.90
2851;DHT22;1433;49.976;8.342;2023-02-18T01:48:38;12.20;99.90
2851;DHT22;1433;49.976;8.342;2023-02-18T01:51:23;12.20;99.90
2851;DHT22;1433;49.976;8.342;2023-02-18T01:56:38;12.20;99.90
2851;DHT22;1433;49.976;8.342;2023-02-18T01:59:13;12.20;99.90
2851;DHT22;1433;49.976;8.342;2023-02-18T02:01:43;12.20;99.90
2851;DHT22;1433;49.976;8.342;2023-02-18T02:04:11;12.20;99.90
2851;DHT22;1433;49.976;8.342;2023-02-18T02:06:40;12.20;99.90
2851;DHT22;1433;49.976;8.342;2023-02-18T02:09:10;12.20;99.90
2851;DHT22;1433;49.976;8.342;2023-02-18T02:26:21;12.10;99.90
2851;DHT22;1433;49.976;8.342;2023-02-18T02:40:06;12.00;99.90
2851;DHT22;1433;49.976;8.342;2023-02-18T02:48:44;12.00;99.90
2851;DHT22;1433;49.976;8.342;2023-02-18T02:54:14;12.00;99.90
2851;DHT22;1433;49.976;8.342;2023-02-18T02:56:48;12.00;99.90
2851;DHT22;1433;49.976;8.342;2023-02-18T02:59:20;12.00;99.90
2851;DHT22;1433;49.976;8.342;2023-02-18T03:07:59;12.10;99.90
2851;DHT22;1433;49.976;8.342;2023-02-18T03:10:52;12.10;99.90
2851;DHT22;1433;49.976;8.342;2023-02-18T03:16:49;12.10;99.90
2851;DHT22;1433;49.976;8.342;2023-02-18T03:19:30;12.10;99.90
2851;DHT22;1433;49.976;8.342;2023-02-18T03:22:17;12.10;99.90
2851;DHT22;1433;49.976;8.342;2023-02-18T03:24:53;12.10;99.90
2851;DHT22;1433;49.976;8.342;2023-02-18T03:30:32;12.00;99.90
2851;DHT22;1433;49.976;8.342;2023-02-18T03:33:07;12.00;99.90
2851;DHT22;1433;49.976;8.342;2023-02-18T03:35:35;12.00;99.90
2851;DHT22;1433;49.976;8.342;2023-02-18T03:40:58;12.00;99.90
2851;DHT22;1433;49.976;8.342;2023-02-18T03:43:31;12.00;99.90
2851;DHT22;1433;49.976;8.342;2023-02-18T03:45:59;12.00;99.90
2851;DHT22;1433;49.976;8.342;2023-02-18T03:48:28;12.00;99.90
2851;DHT22;1433;49.976;8.342;2023-02-18T03:50:56;12.10;99.90
2851;DHT22;1433;49.976;8.342;2023-02-18T03:53:25;12.10;99.90
2851;DHT22;1433;49.976;8.342;2023-02-18T03:55:51;12.10;99.90
2851;DHT22;1433;49.976;8.342;2023-02-18T03:58:17;12.10;99.90
2851;DHT22;1433;49.976;8.342;2023-02-18T04:00:52;12.20;99.90
2851;DHT22;1433;49.976;8.342;2023-02-18T04:03:20;12.10;99.90
2851;DHT22;1433;49.976;8.342;2023-02-18T04:05:46;12.10;99.90
2851;DHT22;1433;49.976;8.342;2023-02-18T04:08:13;12.10;99.90
2851;DHT22;1433;49.976;8.342;2023-02-18T04:10:43;12.00;99.90
2851;DHT22;1433;49.976;8.342;2023-02-18T04:13:12;12.00;99.90
2851;DHT22;1433;49.976;8.342;2023-02-18T04:15:43;12.00;99.90
2851;DHT22;1433;49.976;8.342;2023-02-18T04:18:15;12.00;99.90
2851;DHT22;1433;49.976;8.342;2023-02-18T04:20:51;12.00;99.90
2851;DHT22;1433;49.976;8.342;2023-02-18T04:23:30;11.90;99.90
2851;DHT22;1433;49.976;8.342;2023-02-18T04:25:57;11.90;99.90
2851;DHT22;1433;49.976;8.342;2023-02-18T04:28:29;11.90;99.90
2851;DHT22;1433;49.976;8.342;2023-02-18T04:31:07;11.90;99.90
2851;DHT22;1433;49.976;8.342;2023-02-18T04:33:34;11.90;99.90
2851;DHT22;1433;49.976;8.342;2023-02-18T04:36:08;11.90;99.90
2851;DHT22;1433;49.976;8.342;2023-02-18T04:41:29;11.80;99.90
2851;DHT22;1433;49.976;8.342;2023-02-18T04:44:18;11.80;99.90
2851;DHT22;1433;49.976;8.342;2023-02-18T04:46:55;11.80;99.90
2851;DHT22;1433;49.976;8.342;2023-02-18T04:49:26;11.80;99.90
2851;DHT22;1433;49.976;8.342;2023-02-18T04:51:55;11.70;99.90
2851;DHT22;1433;49.976;8.342;2023-02-18T04:54:26;11.70;99.90
2851;DHT22;1433;49.976;8.342;2023-02-18T04:56:53;11.70;99.90
2851;DHT22;1433;49.976;8.342;2023-02-18T04:59:22;11.70;99.90
2851;DHT22;1433;49.976;8.342;2023-02-18T05:01:51;11.70;99.90
2851;DHT22;1433;49.976;8.342;2023-02-18T05:04:17;11.70;99.90
2851;DHT22;1433;49.976;8.342;2023-02-18T05:06:46;11.70;99.90
2851;DHT22;1433;49.976;8.342;2023-02-18T05:09:12;11.70;99.90
2851;DHT22;1433;49.976;8.342;2023-02-18T05:11:39;11.70;99.90
2851;DHT22;1433;49.976;8.342;2023-02-18T05:14:05;11.60;99.90
2851;DHT22;1433;49.976;8.342;2023-02-18T05:16:34;11.60;99.90
2851;DHT22;1433;49.976;8.342;2023-02-18T05:19:01;11.60;99.90
2851;DHT22;1433;49.976;8.342;2023-02-18T05:21:31;11.60;99.90
2851;DHT22;1433;49.976;8.342;2023-02-18T05:24:02;11.60;99.90
2851;DHT22;1433;49.976;8.342;2023-02-18T05:26:29;11.50;99.90
2851;DHT22;1433;49.976;8.342;2023-02-18T05:28:58;11.50;99.90
2851;DHT22;1433;49.976;8.342;2023-02-18T05:31:31;11.60;99.90
2851;DHT22;1433;49.976;8.342;2023-02-18T05:33:59;11.60;99.90
2851;DHT22;1433;49.976;8.342;2023-02-18T05:36:27;11.60;99.90
2851;DHT22;1433;49.976;8.342;2023-02-18T05:38:54;11.60;99.90
2851;DHT22;1433;49.976;8.342;2023-02-18T05:41:30;11.60;99.90
2851;DHT22;1433;49.976;8.342;2023-02-18T05:43:59;11.60;99.90
2851;DHT22;1433;49.976;8.342;2023-02-18T05:46:44;11.60;99.90
2851;DHT22;1433;49.976;8.342;2023-02-18T05:49:10;11.70;99.90
2851;DHT22;1433;49.976;8.342;2023-02-18T05:51:37;11.70;99.90
2851;DHT22;1433;49.976;8.342;2023-02-18T05:54:03;11.70;99.90
2851;DHT22;1433;49.976;8.342;2023-02-18T05:56:30;11.70;99.90
2851;DHT22;1433;49.976;8.342;2023-02-18T05:58:56;11.70;99.90
2851;DHT22;1433;49.976;8.342;2023-02-18T06:01:22;11.70;99.90
2851;DHT22;1433;49.976;8.342;2023-02-18T06:03:49;11.70;99.90
2851;DHT22;1433;49.976;8.342;2023-02-18T06:06:15;11.70;99.90
2851;DHT22;1433;49.976;8.342;2023-02-18T06:08:41;11.70;99.90
2851;DHT22;1433;49.976;8.342;2023-02-18T06:11:09;11.70;99.90
2851;DHT22;1433;49.976;8.342;2023-02-18T06:13:35;11.60;99.90
2851;DHT22;1433;49.976;8.342;2023-02-18T06:16:02;11.60;99.90
2851;DHT22;1433;49.976;8.342;2023-02-18T06:18:29;11.60;99.90
2851;DHT22;1433;49.976;8.342;2023-02-18T06:20:55;11.60;99.90
2851;DHT22;1433;49.976;8.342;2023-02-18T06:23:34;11.60;99.90
2851;DHT22;1433;49.976;8.342;2023-02-18T06:26:06;11.70;99.90
2851;DHT22;1433;49.976;8.342;2023-02-18T06:28:32;11.70;99.90
2851;DHT22;1433;49.976;8.342;2023-02-18T06:31:03;11.70;99.90
2851;DHT22;1433;49.976;8.342;2023-02-18T06:33:33;11.70;99.90
2851;DHT22;1433;49.976;8.342;2023-02-18T06:36:03;11.70;99.90
2851;DHT22;1433;49.976;8.342;2023-02-18T06:38:42;11.70;99.90
2851;DHT22;1433;49.976;8.342;2023-02-18T06:41:11;11.70;99.90
2851;DHT22;1433;49.976;8.342;2023-02-18T06:43:37;11.70;99.90
2851;DHT22;1433;49.976;8.342;2023-02-18T06:46:12;11.70;99.90
2851;DHT22;1433;49.976;8.342;2023-02-18T06:48:39;11.70;99.90
2851;DHT22;1433;49.976;8.342;2023-02-18T06:51:09;11.70;99.90
2851;DHT22;1433;49.976;8.342;2023-02-18T06:53:40;11.70;99.90
2851;DHT22;1433;49.976;8.342;2023-02-18T06:56:04;11.70;99.90
2851;DHT22;1433;49.976;8.342;2023-02-18T06:58:39;11.70;99.90
2851;DHT22;1433;49.976;8.342;2023-02-18T07:01:11;11.70;99.90
2851;DHT22;1433;49.976;8.342;2023-02-18T07:03:40;11.60;99.90
2851;DHT22;1433;49.976;8.342;2023-02-18T07:06:08;11.60;99.90
2851;DHT22;1433;49.976;8.342;2023-02-18T07:08:37;11.70;99.90
2851;DHT22;1433;49.976;8.342;2023-02-18T07:11:04;11.70;99.90
2851;DHT22;1433;49.976;8.342;2023-02-18T07:13:30;11.70;99.90
2851;DHT22;1433;49.976;8.342;2023-02-18T07:15:59;11.70;99.90
2851;DHT22;1433;49.976;8.342;2023-02-18T07:18:25;11.70;99.90
2851;DHT22;1433;49.976;8.342;2023-02-18T07:20:52;11.70;99.90
2851;DHT22;1433;49.976;8.342;2023-02-18T07:23:18;11.70;99.90
2851;DHT22;1433;49.976;8.342;2023-02-18T07:25:45;11.70;99.90
2851;DHT22;1433;49.976;8.342;2023-02-18T07:28:12;11.70;99.90
2851;DHT22;1433;49.976;8.342;2023-02-18T07:30:38;11.70;99.90
2851;DHT22;1433;49.976;8.342;2023-02-18T07:33:05;11.70;99.90
2851;DHT22;1433;49.976;8.342;2023-02-18T07:35:31;11.70;99.90
2851;DHT22;1433;49.976;8.342;2023-02-18T07:37:57;11.70;99.90
2851;DHT22;1433;49.976;8.342;2023-02-18T07:40:24;11.70;99.90
2851;DHT22;1433;49.976;8.342;2023-02-18T07:42:50;11.70;99.90
2851;DHT22;1433;49.976;8.342;2023-02-18T07:45:25;11.70;99.90
2851;DHT22;1433;49.976;8.342;2023-02-18T07:47:52;11.80;99.90
2851;DHT22;1433;49.976;8.342;2023-02-18T07:50:18;11.80;99.90
2851;DHT22;1433;49.976;8.342;2023-02-18T07:52:45;11.80;99.90
2851;DHT22;1433;49.976;8.342;2023-02-18T07:55:17;11.80;99.90
2851;DHT22;1433;49.976;8.342;2023-02-18T07:57:41;11.80;99.90
2851;DHT22;1433;49.976;8.342;2023-02-18T08:00:10;11.80;99.90
2851;DHT22;1433;49.976;8.342;2023-02-18T08:02:40;11.90;99.90
2851;DHT22;1433;49.976;8.342;2023-02-18T08:05:09;11.80;99.90
2851;DHT22;1433;49.976;8.342;2023-02-18T08:07:44;11.90;99.90
2851;DHT22;1433;49.976;8.342;2023-02-18T08:10:23;11.90;99.90
2851;DHT22;1433;49.976;8.342;2023-02-18T08:12:50;11.90;99.90
2851;DHT22;1433;49.976;8.342;2023-02-18T08:15:17;11.90;99.90
2851;DHT22;1433;49.976;8.342;2023-02-18T08:17:52;12.00;99.90
2851;DHT22;1433;49.976;8.342;2023-02-18T08:20:22;12.00;99.90
2851;DHT22;1433;49.976;8.342;2023-02-18T08:22:51;12.00;99.90
2851;DHT22;1433;49.976;8.342;2023-02-18T08:25:22;12.00;99.90
2851;DHT22;1433;49.976;8.342;2023-02-18T08:27:47;12.00;99.90
2851;DHT22;1433;49.976;8.342;2023-02-18T08:30:14;12.00;99.90
2851;DHT22;1433;49.976;8.342;2023-02-18T08:32:40;12.00;99.90
2851;DHT22;1433;49.976;8.342;2023-02-18T08:35:08;12.00;99.90
2851;DHT22;1433;49.976;8.342;2023-02-18T08:37:35;12.10;99.90
2851;DHT22;1433;49.976;8.342;2023-02-18T08:40:02;12.00;99.90
2851;DHT22;1433;49.976;8.342;2023-02-18T08:42:29;12.00;99.90
2851;DHT22;1433;49.976;8.342;2023-02-18T08:44:55;12.10;99.90
2851;DHT22;1433;49.976;8.342;2023-02-18T08:47:22;12.10;99.90
2851;DHT22;1433;49.976;8.342;2023-02-18T08:49:48;12.20;99.90
2851;DHT22;1433;49.976;8.342;2023-02-18T08:52:15;12.20;99.90
2851;DHT22;1433;49.976;8.342;2023-02-18T08:54:41;12.20;99.90
2851;DHT22;1433;49.976;8.342;2023-02-18T08:57:19;12.20;99.90
2851;DHT22;1433;49.976;8.342;2023-02-18T08:59:48;12.20;99.90
2851;DHT22;1433;49.976;8.342;2023-02-18T09:02:14;12.10;99.90
2851;DHT22;1433;49.976;8.342;2023-02-18T09:04:41;12.20;99.90
2851;DHT22;1433;49.976;8.342;2023-02-18T09:07:08;12.20;99.90
2851;DHT22;1433;49.976;8.342;2023-02-18T09:09:34;12.20;99.90
2851;DHT22;1433;49.976;8.342;2023-02-18T09:12:00;12.30;99.90
2851;DHT22;1433;49.976;8.342;2023-02-18T09:14:27;12.30;99.90
2851;DHT22;1433;49.976;8.342;2023-02-18T09:16:56;12.30;99.90
2851;DHT22;1433;49.976;8.342;2023-02-18T09:19:23;12.30;99.90
2851;DHT22;1433;49.976;8.342;2023-02-18T09:21:50;12.40;99.90
2851;DHT22;1433;49.976;8.342;2023-02-18T09:24:19;12.50;99.90
2851;DHT22;1433;49.976;8.342;2023-02-18T09:26:45;12.50;99.90
2851;DHT22;1433;49.976;8.342;2023-02-18T09:29:12;12.40;99.90
2851;DHT22;1433;49.976;8.342;2023-02-18T09:31:38;12.40;99.90
2851;DHT22;1433;49.976;8.342;2023-02-18T09:34:05;12.40;99.90
2851;DHT22;1433;49.976;8.342;2023-02-18T09:36:38;12.40;99.90
2851;DHT22;1433;49.976;8.342;2023-02-18T09:39:05;12.30;99.90
2851;DHT22;1433;49.976;8.342;2023-02-18T09:41:46;12.30;99.90
2851;DHT22;1433;49.976;8.342;2023-02-18T09:44:44;12.40;99.90
2851;DHT22;1433;49.976;8.342;2023-02-18T09:47:33;12.40;99.90
2851;DHT22;1433;49.976;8.342;2023-02-18T09:50:18;12.40;99.90
2851;DHT22;1433;49.976;8.342;2023-02-18T09:52:47;12.40;99.90
2851;DHT22;1433;49.976;8.342;2023-02-18T09:57:51;12.50;99.90
2851;DHT22;1433;49.976;8.342;2023-02-18T10:00:22;12.50;99.90
2851;DHT22;1433;49.976;8.342;2023-02-18T10:05:42;12.40;99.90
2851;DHT22;1433;49.976;8.342;2023-02-18T10:08:18;12.40;99.90
2851;DHT22;1433;49.976;8.342;2023-02-18T10:10:48;12.40;99.90
2851;DHT22;1433;49.976;8.342;2023-02-18T10:13:17;12.40;99.90
2851;DHT22;1433;49.976;8.342;2023-02-18T10:15:45;12.40;99.90
2851;DHT22;1433;49.976;8.342;2023-02-18T10:18:41;12.40;99.90
2851;DHT22;1433;49.976;8.342;2023-02-18T10:21:16;12.50;99.90
2851;DHT22;1433;49.976;8.342;2023-02-18T10:24:05;12.40;99.90
2851;DHT22;1433;49.976;8.342;2023-02-18T10:26:35;12.50;99.90
2851;DHT22;1433;49.976;8.342;2023-02-18T10:29:03;12.40;99.90
2851;DHT22;1433;49.976;8.342;2023-02-18T10:31:35;12.40;99.90
2851;DHT22;1433;49.976;8.342;2023-02-18T10:34:18;12.50;99.90
2851;DHT22;1433;49.976;8.342;2023-02-18T10:36:55;12.60;99.90
2851;DHT22;1433;49.976;8.342;2023-02-18T10:40:43;12.60;99.90
2851;DHT22;1433;49.976;8.342;2023-02-18T10:42:36;12.80;99.90
2851;DHT22;1433;49.976;8.342;2023-02-18T10:51:39;12.90;99.90
2851;DHT22;1433;49.976;8.342;2023-02-18T10:54:14;12.90;99.90
2851;DHT22;1433;49.976;8.342;2023-02-18T10:56:49;12.90;99.90
2851;DHT22;1433;49.976;8.342;2023-02-18T10:59:22;12.80;99.90
2851;DHT22;1433;49.976;8.342;2023-02-18T11:02:13;12.80;99.90
2851;DHT22;1433;49.976;8.342;2023-02-18T11:04:41;12.70;99.90
2851;DHT22;1433;49.976;8.342;2023-02-18T11:07:22;12.70;99.90
2851;DHT22;1433;49.976;8.342;2023-02-18T11:09:57;12.60;99.90
2851;DHT22;1433;49.976;8.342;2023-02-18T11:12:48;12.60;99.90
2851;DHT22;1433;49.976;8.342;2023-02-18T11:15:22;12.60;99.90
2851;DHT22;1433;49.976;8.342;2023-02-18T11:17:52;12.70;99.90
2851;DHT22;1433;49.976;8.342;2023-02-18T11:20:31;12.80;99.90
2851;DHT22;1433;49.976;8.342;2023-02-18T11:26:04;13.00;99.90
2851;DHT22;1433;49.976;8.342;2023-02-18T11:28:40;13.00;99.90
2851;DHT22;1433;49.976;8.342;2023-02-18T11:31:15;13.10;99.90
2851;DHT22;1433;49.976;8.342;2023-02-18T11:33:49;13.10;99.90
2851;DHT22;1433;49.976;8.342;2023-02-18T11:39:02;13.10;99.90
2851;DHT22;1433;49.976;8.342;2023-02-18T11:41:42;13.00;99.90
2851;DHT22;1433;49.976;8.342;2023-02-18T11:44:41;12.90;99.90
2851;DHT22;1433;49.976;8.342;2023-02-18T11:50:30;13.00;99.90
2851;DHT22;1433;49.976;8.342;2023-02-18T11:52:56;13.00;99.90
2851;DHT22;1433;49.976;8.342;2023-02-18T11:55:26;12.90;99.90
2851;DHT22;1433;49.976;8.342;2023-02-18T11:57:58;12.80;99.90
2851;DHT22;1433;49.976;8.342;2023-02-18T12:00:39;12.70;99.90
2851;DHT22;1433;49.976;8.342;2023-02-18T12:06:21;12.50;99.90
2851;DHT22;1433;49.976;8.342;2023-02-18T12:08:55;12.50;99.90
2851;DHT22;1433;49.976;8.342;2023-02-18T12:11:36;12.60;99.90
2851;DHT22;1433;49.976;8.342;2023-02-18T12:14:01;12.60;99.90
2851;DHT22;1433;49.976;8.342;2023-02-18T12:19:40;12.50;99.90
2851;DHT22;1433;49.976;8.342;2023-02-18T12:25:14;12.50;99.90
2851;DHT22;1433;49.976;8.342;2023-02-18T12:30:58;12.50;99.90
2851;DHT22;1433;49.976;8.342;2023-02-18T12:37:00;12.50;99.90
2851;DHT22;1433;49.976;8.342;2023-02-18T12:42:51;12.50;99.90
2851;DHT22;1433;49.976;8.342;2023-02-18T12:48:06;12.50;99.90
2851;DHT22;1433;49.976;8.342;2023-02-18T12:51:01;12.50;99.90
2851;DHT22;1433;49.976;8.342;2023-02-18T12:53:42;12.60;99.90
2851;DHT22;1433;49.976;8.342;2023-02-18T12:59:30;12.60;99.90
2851;DHT22;1433;49.976;8.342;2023-02-18T13:07:51;12.50;99.90
2851;DHT22;1433;49.976;8.342;2023-02-18T13:13:36;12.60;99.90
2851;DHT22;1433;49.976;8.342;2023-02-18T13:16:14;12.50;99.90
2851;DHT22;1433;49.976;8.342;2023-02-18T13:19:10;12.40;99.90
2851;DHT22;1433;49.976;8.342;2023-02-18T13:21:47;12.40;99.90
2851;DHT22;1433;49.976;8.342;2023-02-18T13:24:34;12.40;99.90
2851;DHT22;1433;49.976;8.342;2023-02-18T13:33:20;12.50;99.90
2851;DHT22;1433;49.976;8.342;2023-02-18T13:39:07;12.30;99.90
2851;DHT22;1433;49.976;8.342;2023-02-18T13:41:37;12.20;99.90
2851;DHT22;1433;49.976;8.342;2023-02-18T13:46:55;11.90;99.90
2851;DHT22;1433;49.976;8.342;2023-02-18T13:49:24;11.50;99.90
2851;DHT22;1433;49.976;8.342;2023-02-18T13:51:56;10.70;99.90
2851;DHT22;1433;49.976;8.342;2023-02-18T13:57:18;10.20;99.90
2851;DHT22;1433;49.976;8.342;2023-02-18T13:59:57;10.30;99.90
2851;DHT22;1433;49.976;8.342;2023-02-18T14:02:34;10.30;99.90
2851;DHT22;1433;49.976;8.342;2023-02-18T14:13:49;10.60;99.90
2851;DHT22;1433;49.976;8.342;2023-02-18T14:16:18;10.80;99.90
2851;DHT22;1433;49.976;8.342;2023-02-18T14:21:37;11.00;99.90
2851;DHT22;1433;49.976;8.342;2023-02-18T14:24:06;10.90;99.90
2851;DHT22;1433;49.976;8.342;2023-02-18T14:26:42;11.00;99.90
2851;DHT22;1433;49.976;8.342;2023-02-18T14:29:26;11.10;99.90
2851;DHT22;1433;49.976;8.342;2023-02-18T14:32:08;11.30;99.90
2851;DHT22;1433;49.976;8.342;2023-02-18T14:35:02;11.60;99.90
2851;DHT22;1433;49.976;8.342;2023-02-18T14:37:57;11.70;99.90
2851;DHT22;1433;49.976;8.342;2023-02-18T14:50:19;11.90;99.90
2851;DHT22;1433;49.976;8.342;2023-02-18T14:52:55;11.90;99.90
2851;DHT22;1433;49.976;8.342;2023-02-18T14:55:22;11.90;99.90
2851;DHT22;1433;49.976;8.342;2023-02-18T15:00:31;11.90;99.90
2851;DHT22;1433;49.976;8.342;2023-02-18T15:03:02;12.10;99.90
2851;DHT22;1433;49.976;8.342;2023-02-18T15:05:31;12.10;99.90
2851;DHT22;1433;49.976;8.342;2023-02-18T15:08:02;12.20;99.90
2851;DHT22;1433;49.976;8.342;2023-02-18T15:15:52;12.30;99.90
2851;DHT22;1433;49.976;8.342;2023-02-18T15:21:02;12.20;99.90
2851;DHT22;1433;49.976;8.342;2023-02-18T15:23:32;12.30;99.90
2851;DHT22;1433;49.976;8.342;2023-02-18T15:26:03;12.30;99.90
2851;DHT22;1433;49.976;8.342;2023-02-18T15:28:32;12.20;99.90
2851;DHT22;1433;49.976;8.342;2023-02-18T15:31:01;12.30;99.90
2851;DHT22;1433;49.976;8.342;2023-02-18T15:33:29;12.20;99.90
2851;DHT22;1433;49.976;8.342;2023-02-18T15:36:04;12.20;99.90
2851;DHT22;1433;49.976;8.342;2023-02-18T15:38:32;12.10;99.90
2851;DHT22;1433;49.976;8.342;2023-02-18T15:40:59;12.20;99.90
2851;DHT22;1433;49.976;8.342;2023-02-18T15:43:26;12.10;99.90
2851;DHT22;1433;49.976;8.342;2023-02-18T15:45:56;12.10;99.90
2851;DHT22;1433;49.976;8.342;2023-02-18T15:48:34;12.10;99.90
2851;DHT22;1433;49.976;8.342;2023-02-18T15:51:04;12.10;99.90
2851;DHT22;1433;49.976;8.342;2023-02-18T15:53:37;12.20;99.90
2851;DHT22;1433;49.976;8.342;2023-02-18T15:56:11;12.10;99.90
2851;DHT22;1433;49.976;8.342;2023-02-18T15:58:40;12.10;99.90
2851;DHT22;1433;49.976;8.342;2023-02-18T16:01:28;12.10;99.90
2851;DHT22;1433;49.976;8.342;2023-02-18T16:03:54;12.10;99.90
2851;DHT22;1433;49.976;8.342;2023-02-18T16:06:27;12.00;99.90
2851;DHT22;1433;49.976;8.342;2023-02-18T16:09:17;12.10;99.90
2851;DHT22;1433;49.976;8.342;2023-02-18T16:11:56;12.00;99.90
2851;DHT22;1433;49.976;8.342;2023-02-18T16:14:45;12.00;99.90
2851;DHT22;1433;49.976;8.342;2023-02-18T16:17:21;11.90;99.90
2851;DHT22;1433;49.976;8.342;2023-02-18T16:20:13;11.90;99.90
2851;DHT22;1433;49.976;8.342;2023-02-18T16:25:17;11.90;99.90
2851;DHT22;1433;49.976;8.342;2023-02-18T16:30:28;11.80;99.90
2851;DHT22;1433;49.976;8.342;2023-02-18T16:32:56;11.80;99.90
2851;DHT22;1433;49.976;8.342;2023-02-18T16:35:25;11.80;99.90
2851;DHT22;1433;49.976;8.342;2023-02-18T16:37:53;11.70;99.90
2851;DHT22;1433;49.976;8.342;2023-02-18T16:40:26;11.70;99.90
2851;DHT22;1433;49.976;8.342;2023-02-18T16:42:59;11.70;99.90
2851;DHT22;1433;49.976;8.342;2023-02-18T16:45:41;11.60;99.90
2851;DHT22;1433;49.976;8.342;2023-02-18T16:48:18;11.60;99.90
2851;DHT22;1433;49.976;8.342;2023-02-18T16:50:53;11.60;99.90
2851;DHT22;1433;49.976;8.342;2023-02-18T16:53:19;11.60;99.90
2851;DHT22;1433;49.976;8.342;2023-02-18T16:55:49;11.60;99.90
2851;DHT22;1433;49.976;8.342;2023-02-18T16:58:16;11.50;99.90
2851;DHT22;1433;49.976;8.342;2023-02-18T17:00:43;11.50;99.90
2851;DHT22;1433;49.976;8.342;2023-02-18T17:03:11;11.50;99.90
2851;DHT22;1433;49.976;8.342;2023-02-18T17:05:38;11.50;99.90
2851;DHT22;1433;49.976;8.342;2023-02-18T17:08:14;11.40;99.90
2851;DHT22;1433;49.976;8.342;2023-02-18T17:10:47;11.40;99.90
2851;DHT22;1433;49.976;8.342;2023-02-18T17:13:19;11.40;99.90
2851;DHT22;1433;49.976;8.342;2023-02-18T17:15:49;11.40;99.90
2851;DHT22;1433;49.976;8.342;2023-02-18T17:18:17;11.40;99.90
2851;DHT22;1433;49.976;8.342;2023-02-18T17:20:44;11.30;99.90
2851;DHT22;1433;49.976;8.342;2023-02-18T17:23:14;11.30;99.90
2851;DHT22;1433;49.976;8.342;2023-02-18T17:25:41;11.30;99.90
2851;DHT22;1433;49.976;8.342;2023-02-18T17:28:07;11.30;99.90
2851;DHT22;1433;49.976;8.342;2023-02-18T17:30:36;11.30;99.90
2851;DHT22;1433;49.976;8.342;2023-02-18T17:33:04;11.30;99.90
2851;DHT22;1433;49.976;8.342;2023-02-18T17:35:31;11.30;99.90
2851;DHT22;1433;49.976;8.342;2023-02-18T17:37:58;11.20;99.90
2851;DHT22;1433;49.976;8.342;2023-02-18T17:40:26;11.20;99.90
2851;DHT22;1433;49.976;8.342;2023-02-18T17:42:54;11.20;99.90
2851;DHT22;1433;49.976;8.342;2023-02-18T17:45:31;11.20;99.90
2851;DHT22;1433;49.976;8.342;2023-02-18T17:48:01;11.20;99.90
2851;DHT22;1433;49.976;8.342;2023-02-18T17:50:29;11.20;99.90
2851;DHT22;1433;49.976;8.342;2023-02-18T17:52:56;11.10;99.90
2851;DHT22;1433;49.976;8.342;2023-02-18T17:55:25;11.10;99.90
2851;DHT22;1433;49.976;8.342;2023-02-18T17:57:53;11.00;99.90
2851;DHT22;1433;49.976;8.342;2023-02-18T18:00:24;11.00;99.90
2851;DHT22;1433;49.976;8.342;2023-02-18T18:02:51;11.00;99.90
2851;DHT22;1433;49.976;8.342;2023-02-18T18:07:54;10.90;99.90
2851;DHT22;1433;49.976;8.342;2023-02-18T18:10:23;10.90;99.90
2851;DHT22;1433;49.976;8.342;2023-02-18T18:12:52;10.90;99.90
2851;DHT22;1433;49.976;8.342;2023-02-18T18:15:25;10.90;99.90
2851;DHT22;1433;49.976;8.342;2023-02-18T18:17:55;10.90;99.90
2851;DHT22;1433;49.976;8.342;2023-02-18T18:20:25;10.90;99.90
2851;DHT22;1433;49.976;8.342;2023-02-18T18:22:53;10.90;99.90
2851;DHT22;1433;49.976;8.342;2023-02-18T18:27:52;10.90;99.90
2851;DHT22;1433;49.976;8.342;2023-02-18T18:30:23;11.00;99.90
2851;DHT22;1433;49.976;8.342;2023-02-18T18:32:54;11.00;99.90
2851;DHT22;1433;49.976;8.342;2023-02-18T18:35:32;11.00;99.90
2851;DHT22;1433;49.976;8.342;2023-02-18T18:38:01;11.00;99.90
2851;DHT22;1433;49.976;8.342;2023-02-18T18:40:30;11.00;99.90
2851;DHT22;1433;49.976;8.342;2023-02-18T18:42:59;11.00;99.90
2851;DHT22;1433;49.976;8.342;2023-02-18T18:45:34;11.00;99.90
2851;DHT22;1433;49.976;8.342;2023-02-18T18:48:04;11.00;99.90
2851;DHT22;1433;49.976;8.342;2023-02-18T18:50:32;11.00;99.90
2851;DHT22;1433;49.976;8.342;2023-02-18T18:53:21;11.00;99.90
2851;DHT22;1433;49.976;8.342;2023-02-18T18:55:52;11.00;99.90
2851;DHT22;1433;49.976;8.342;2023-02-18T18:58:20;11.00;99.90
2851;DHT22;1433;49.976;8.342;2023-02-18T19:00:54;11.00;99.90
2851;DHT22;1433;49.976;8.342;2023-02-18T19:03:23;11.00;99.90
2851;DHT22;1433;49.976;8.342;2023-02-18T19:05:51;11.00;99.90
2851;DHT22;1433;49.976;8.342;2023-02-18T19:08:19;11.00;99.90
2851;DHT22;1433;49.976;8.342;2023-02-18T19:10:48;11.00;99.90
2851;DHT22;1433;49.976;8.342;2023-02-18T19:15:49;11.00;99.90
2851;DHT22;1433;49.976;8.342;2023-02-18T19:18:28;11.00;99.90
2851;DHT22;1433;49.976;8.342;2023-02-18T19:20:54;11.00;99.90